createdAt,value
2019-04-26T00:00:18.270Z,1005.28
2019-04-26T00:01:18.391Z,1005.26
2019-04-26T00:03:12.068Z,1005.22
2019-04-26T00:04:12.063Z,1005.24
2019-04-26T00:06:03.666Z,1005.21
2019-04-26T00:07:03.591Z,1005.24
2019-04-26T00:08:56.375Z,1005.24
2019-04-26T00:09:56.292Z,1005.20
2019-04-26T00:11:49.048Z,1005.17
2019-04-26T00:12:48.987Z,1005.20
2019-04-26T00:14:41.758Z,1005.13
2019-04-26T00:15:41.685Z,1005.15
2019-04-26T00:17:34.479Z,1005.16
2019-04-26T00:18:34.407Z,1005.15
2019-04-26T00:20:27.213Z,1005.11
2019-04-26T00:21:27.132Z,1005.08
2019-04-26T00:23:19.907Z,1005.07
2019-04-26T00:24:19.847Z,1005.08
2019-04-26T00:26:13.524Z,1005.06
2019-04-26T00:27:12.769Z,1005.08
2019-04-26T00:29:05.352Z,1005.01
2019-04-26T00:30:05.287Z,1005.04
2019-04-26T00:31:58.096Z,1005.02
2019-04-26T00:32:57.984Z,1004.97
2019-04-26T00:34:50.759Z,1004.97
2019-04-26T00:35:50.679Z,1004.93
2019-04-26T00:37:43.495Z,1004.94
2019-04-26T00:38:43.424Z,1004.90
2019-04-26T00:40:36.223Z,1004.83
2019-04-26T00:41:36.171Z,1004.87
2019-04-26T00:43:28.920Z,1004.82
2019-04-26T00:44:28.856Z,1004.78
2019-04-26T00:46:21.647Z,1004.73
2019-04-26T00:47:21.570Z,1004.72
2019-04-26T00:49:15.112Z,1004.72
2019-04-26T00:50:15.260Z,1004.72
2019-04-26T00:52:07.074Z,1004.71
2019-04-26T00:53:06.999Z,1004.69
2019-04-26T00:54:59.794Z,1004.67
2019-04-26T00:55:59.716Z,1004.69
2019-04-26T00:57:52.480Z,1004.65
2019-04-26T00:58:52.411Z,1004.63
2019-04-26T01:00:45.202Z,1004.62
2019-04-26T01:01:45.125Z,1004.61
2019-04-26T01:03:37.909Z,1004.58
2019-04-26T01:04:37.828Z,1004.59
2019-04-26T01:06:30.601Z,1004.56
2019-04-26T01:07:30.536Z,1004.51
2019-04-26T01:09:23.677Z,1004.51
2019-04-26T01:10:23.764Z,1004.53
2019-04-26T01:12:16.790Z,1004.48
2019-04-26T01:13:16.438Z,1004.48
2019-04-26T01:15:08.740Z,1004.48
2019-04-26T01:16:08.636Z,1004.46
2019-04-26T01:18:01.450Z,1004.47
2019-04-26T01:19:01.362Z,1004.45
2019-04-26T01:20:54.145Z,1004.42
2019-04-26T01:21:54.062Z,1004.37
2019-04-26T01:23:46.831Z,1004.40
2019-04-26T01:24:46.761Z,1004.37
2019-04-26T01:26:39.537Z,1004.33
2019-04-26T01:27:39.489Z,1004.33
2019-04-26T01:29:32.244Z,1004.28
2019-04-26T01:30:32.184Z,1004.31
2019-04-26T01:32:26.077Z,1004.27
2019-04-26T01:33:26.058Z,1004.26
2019-04-26T01:35:17.891Z,1004.24
2019-04-26T01:36:18.077Z,1004.28
2019-04-26T01:38:10.371Z,1004.23
2019-04-26T01:39:10.306Z,1004.24
2019-04-26T01:41:03.073Z,1004.18
2019-04-26T01:42:03.007Z,1004.23
2019-04-26T01:43:55.769Z,1004.17
2019-04-26T01:44:55.700Z,1004.19
2019-04-26T01:46:48.478Z,1004.15
2019-04-26T01:47:48.397Z,1004.17
2019-04-26T01:49:41.182Z,1004.14
2019-04-26T01:50:41.114Z,1004.13
2019-04-26T01:52:33.878Z,1004.09
2019-04-26T01:53:33.799Z,1004.13
2019-04-26T01:56:01.255Z,1004.09
2019-04-26T01:57:01.174Z,1004.09
2019-04-26T01:58:53.978Z,1004.05
2019-04-26T01:59:53.905Z,1004.02
2019-04-26T02:01:46.680Z,1004.06
2019-04-26T02:02:46.603Z,1004.05
2019-04-26T02:04:39.361Z,1004.04
2019-04-26T02:05:39.296Z,1004.03
2019-04-26T02:07:32.914Z,1004.01
2019-04-26T02:08:32.846Z,1003.96
2019-04-26T02:10:26.563Z,1003.97
2019-04-26T02:11:26.672Z,1004.01
2019-04-26T02:13:18.338Z,1003.98
2019-04-26T02:14:18.259Z,1004.02
2019-04-26T02:16:11.050Z,1003.95
2019-04-26T02:17:10.961Z,1003.93
2019-04-26T02:19:03.715Z,1003.90
2019-04-26T02:20:03.654Z,1003.87
2019-04-26T02:21:56.444Z,1003.85
2019-04-26T02:22:56.359Z,1003.87
2019-04-26T02:24:49.138Z,1003.83
2019-04-26T02:25:49.061Z,1003.82
2019-04-26T02:27:42.704Z,1003.81
2019-04-26T02:28:42.634Z,1003.80
2019-04-26T02:30:36.711Z,1003.75
2019-04-26T02:31:37.271Z,1003.76
2019-04-26T02:33:29.678Z,1003.75
2019-04-26T02:34:30.783Z,1003.70
2019-04-26T02:36:21.640Z,1003.69
2019-04-26T02:37:21.578Z,1003.74
2019-04-26T02:39:14.365Z,1003.69
2019-04-26T02:40:14.298Z,1003.68
2019-04-26T02:42:07.068Z,1003.69
2019-04-26T02:43:07.000Z,1003.65
2019-04-26T02:44:59.748Z,1003.62
2019-04-26T02:45:59.691Z,1003.57
2019-04-26T02:47:52.462Z,1003.61
2019-04-26T02:48:52.390Z,1003.61
2019-04-26T02:50:45.164Z,1003.62
2019-04-26T02:51:45.088Z,1003.56
2019-04-26T02:53:38.899Z,1003.60
2019-04-26T02:54:38.382Z,1003.59
2019-04-26T02:56:32.177Z,1003.64
2019-04-26T02:57:31.385Z,1003.64
2019-04-26T02:59:23.268Z,1003.60
2019-04-26T03:00:23.184Z,1003.65
2019-04-26T03:02:15.975Z,1003.61
2019-04-26T03:03:15.900Z,1003.60
2019-04-26T03:05:08.732Z,1003.59
2019-04-26T03:06:08.594Z,1003.58
2019-04-26T03:08:01.378Z,1003.57
2019-04-26T03:09:01.295Z,1003.61
2019-04-26T03:10:54.062Z,1003.58
2019-04-26T03:11:53.997Z,1003.56
2019-04-26T03:13:46.764Z,1003.56
2019-04-26T03:14:46.687Z,1003.57
2019-04-26T03:16:40.894Z,1003.56
2019-04-26T03:17:39.849Z,1003.56
2019-04-26T03:19:33.758Z,1003.54
2019-04-26T03:20:33.280Z,1003.54
2019-04-26T03:22:24.895Z,1003.53
2019-04-26T03:23:41.071Z,1003.55
2019-04-26T03:25:17.651Z,1003.52
2019-04-26T03:26:17.525Z,1003.51
2019-04-26T03:28:10.301Z,1003.50
2019-04-26T03:29:10.228Z,1003.50
2019-04-26T03:31:03.024Z,1003.58
2019-04-26T03:32:02.941Z,1003.51
2019-04-26T03:33:55.869Z,1003.52
2019-04-26T03:34:55.939Z,1003.52
2019-04-26T03:36:48.459Z,1003.52
2019-04-26T03:37:48.391Z,1003.52
2019-04-26T03:39:42.916Z,1003.51
2019-04-26T03:40:43.180Z,1003.50
2019-04-26T03:42:35.154Z,1003.47
2019-04-26T03:43:34.991Z,1003.48
2019-04-26T03:45:26.593Z,1003.46
2019-04-26T03:46:26.517Z,1003.48
2019-04-26T03:48:19.286Z,1003.46
2019-04-26T03:49:19.300Z,1003.47
2019-04-26T03:51:11.994Z,1003.50
2019-04-26T03:52:11.921Z,1003.48
2019-04-26T03:54:04.691Z,1003.50
2019-04-26T03:55:04.617Z,1003.46
2019-04-26T03:56:57.375Z,1003.44
2019-04-26T03:57:57.323Z,1003.43
2019-04-26T03:59:50.091Z,1003.44
2019-04-26T04:00:50.038Z,1003.44
2019-04-26T04:02:43.404Z,1003.45
2019-04-26T04:03:45.102Z,1003.47
2019-04-26T04:05:35.985Z,1003.48
2019-04-26T04:06:52.408Z,1003.43
2019-04-26T04:08:28.247Z,1003.50
2019-04-26T04:09:28.171Z,1003.51
2019-04-26T04:11:20.999Z,1003.52
2019-04-26T04:12:20.954Z,1003.51
2019-04-26T04:14:13.760Z,1003.50
2019-04-26T04:15:13.645Z,1003.50
2019-04-26T04:17:06.390Z,1003.50
2019-04-26T04:18:06.322Z,1003.51
2019-04-26T04:19:59.080Z,1003.50
2019-04-26T04:20:59.007Z,1003.54
2019-04-26T04:22:51.811Z,1003.54
2019-04-26T04:23:51.755Z,1003.53
2019-04-26T04:25:45.968Z,1003.54
2019-04-26T04:26:45.329Z,1003.51
2019-04-26T04:28:58.202Z,1003.51
2019-04-26T04:29:42.798Z,1003.53
2019-04-26T04:31:29.941Z,1003.50
2019-04-26T04:32:29.867Z,1003.52
2019-04-26T04:34:22.678Z,1003.55
2019-04-26T04:35:22.599Z,1003.53
2019-04-26T04:37:15.355Z,1003.53
2019-04-26T04:38:15.307Z,1003.54
2019-04-26T04:40:08.066Z,1003.56
2019-04-26T04:41:08.550Z,1003.56
2019-04-26T04:43:00.871Z,1003.56
2019-04-26T04:44:00.702Z,1003.56
2019-04-26T04:45:53.587Z,1003.52
2019-04-26T04:46:54.062Z,1003.51
2019-04-26T04:48:48.153Z,1003.51
2019-04-26T04:49:46.999Z,1003.50
2019-04-26T04:51:39.010Z,1003.54
2019-04-26T04:52:38.937Z,1003.55
2019-04-26T04:54:31.716Z,1003.55
2019-04-26T04:55:31.635Z,1003.58
2019-04-26T04:57:24.450Z,1003.54
2019-04-26T04:58:24.422Z,1003.56
2019-04-26T05:00:17.265Z,1003.55
2019-04-26T05:01:17.128Z,1003.54
2019-04-26T05:03:09.897Z,1003.52
2019-04-26T05:04:09.831Z,1003.57
2019-04-26T05:06:07.684Z,1003.56
2019-04-26T05:07:02.544Z,1003.58
2019-04-26T05:08:55.320Z,1003.58
2019-04-26T05:09:55.255Z,1003.60
2019-04-26T05:11:48.027Z,1003.59
2019-04-26T05:12:47.944Z,1003.54
2019-04-26T05:14:40.705Z,1003.61
2019-04-26T05:15:40.640Z,1003.60
2019-04-26T05:17:33.455Z,1003.57
2019-04-26T05:18:33.346Z,1003.58
2019-04-26T05:20:26.131Z,1003.62
2019-04-26T05:21:26.069Z,1003.59
2019-04-26T05:23:18.900Z,1003.62
2019-04-26T05:24:18.805Z,1003.56
2019-04-26T05:26:11.617Z,1003.64
2019-04-26T05:27:11.533Z,1003.62
2019-04-26T05:29:04.341Z,1003.60
2019-04-26T05:30:04.257Z,1003.57
2019-04-26T05:31:57.051Z,1003.55
2019-04-26T05:32:57.115Z,1003.58
2019-04-26T05:34:50.653Z,1003.58
2019-04-26T05:35:49.674Z,1003.57
2019-04-26T05:37:42.462Z,1003.58
2019-04-26T05:38:42.383Z,1003.65
2019-04-26T05:40:35.161Z,1003.56
2019-04-26T05:41:35.084Z,1003.58
2019-04-26T05:43:27.855Z,1003.61
2019-04-26T05:44:27.782Z,1003.62
2019-04-26T05:46:21.397Z,1003.59
2019-04-26T05:47:21.336Z,1003.58
2019-04-26T05:49:14.116Z,1003.58
2019-04-26T05:50:14.047Z,1003.59
2019-04-26T05:52:06.871Z,1003.56
2019-04-26T05:53:06.769Z,1003.56
2019-04-26T05:54:59.542Z,1003.57
2019-04-26T05:55:59.508Z,1003.60
2019-04-26T05:57:52.817Z,1003.64
2019-04-26T05:58:52.864Z,1003.60
2019-04-26T06:00:46.140Z,1003.65
2019-04-26T06:01:46.455Z,1003.64
2019-04-26T06:03:38.836Z,1003.65
2019-04-26T06:04:38.767Z,1003.62
2019-04-26T06:06:31.532Z,1003.58
2019-04-26T06:07:31.471Z,1003.57
2019-04-26T06:09:24.264Z,1003.62
2019-04-26T06:10:24.188Z,1003.64
2019-04-26T06:12:16.989Z,1003.64
2019-04-26T06:13:16.919Z,1003.69
2019-04-26T06:15:09.729Z,1003.70
2019-04-26T06:16:09.658Z,1003.69
2019-04-26T06:18:02.451Z,1003.67
2019-04-26T06:19:02.382Z,1003.71
2019-04-26T06:20:55.450Z,1003.67
2019-04-26T06:21:55.864Z,1003.66
2019-04-26T06:23:47.903Z,1003.64
2019-04-26T06:24:47.833Z,1003.68
2019-04-26T06:26:40.637Z,1003.70
2019-04-26T06:27:40.575Z,1003.73
2019-04-26T06:29:33.366Z,1003.75
2019-04-26T06:30:45.013Z,1003.78
2019-04-26T06:32:26.144Z,1003.73
2019-04-26T06:33:26.014Z,1003.69
2019-04-26T06:35:20.268Z,1003.61
2019-04-26T06:36:18.756Z,1003.61
2019-04-26T06:38:11.587Z,1003.69
2019-04-26T06:39:11.498Z,1003.69
2019-04-26T06:41:04.418Z,1003.69
2019-04-26T06:42:05.106Z,1003.70
2019-04-26T06:43:58.254Z,1003.71
2019-04-26T06:44:56.970Z,1003.71
2019-04-26T06:46:49.775Z,1003.70
2019-04-26T06:47:49.717Z,1003.71
2019-04-26T06:49:42.509Z,1003.69
2019-04-26T06:50:42.433Z,1003.65
2019-04-26T06:52:35.228Z,1003.67
2019-04-26T06:53:35.164Z,1003.62
2019-04-26T06:55:27.965Z,1003.59
2019-04-26T06:56:27.896Z,1003.59
2019-04-26T06:58:20.725Z,1003.56
2019-04-26T06:59:20.628Z,1003.59
2019-04-26T07:01:13.411Z,1003.56
2019-04-26T07:02:13.346Z,1003.56
2019-04-26T07:04:06.210Z,1003.58
2019-04-26T07:05:06.967Z,1003.60
2019-04-26T07:06:59.901Z,1003.56
2019-04-26T07:07:58.815Z,1003.52
2019-04-26T07:09:51.611Z,1003.59
2019-04-26T07:10:51.589Z,1003.53
2019-04-26T07:12:44.337Z,1003.46
2019-04-26T07:13:44.283Z,1003.44
2019-04-26T07:15:37.082Z,1003.49
2019-04-26T07:16:37.021Z,1003.45
2019-04-26T07:18:29.820Z,1003.48
2019-04-26T07:19:29.762Z,1003.43
2019-04-26T07:21:22.577Z,1003.45
2019-04-26T07:22:34.557Z,1003.43
2019-04-26T07:24:15.306Z,1003.36
2019-04-26T07:25:17.753Z,1003.41
2019-04-26T07:27:08.946Z,1003.33
2019-04-26T07:28:09.711Z,1003.39
2019-04-26T07:30:02.312Z,1003.36
2019-04-26T07:31:01.491Z,1003.38
2019-04-26T07:32:53.514Z,1003.39
2019-04-26T07:33:53.457Z,1003.41
2019-04-26T07:35:46.289Z,1003.40
2019-04-26T07:36:46.215Z,1003.41
2019-04-26T07:38:38.995Z,1003.41
2019-04-26T07:39:38.946Z,1003.42
2019-04-26T07:41:31.731Z,1003.44
2019-04-26T07:42:31.676Z,1003.41
2019-04-26T07:44:24.452Z,1003.39
2019-04-26T07:45:24.393Z,1003.38
2019-04-26T07:47:17.219Z,1003.36
2019-04-26T07:48:17.138Z,1003.35
2019-04-26T07:50:09.958Z,1003.42
2019-04-26T07:51:09.854Z,1003.39
2019-04-26T07:53:04.638Z,1003.49
2019-04-26T07:54:03.906Z,1003.41
2019-04-26T07:55:55.382Z,1003.47
2019-04-26T07:56:55.322Z,1003.45
2019-04-26T07:58:48.174Z,1003.41
2019-04-26T07:59:48.164Z,1003.39
2019-04-26T08:01:40.998Z,1003.47
2019-04-26T08:02:40.937Z,1003.43
2019-04-26T08:04:33.743Z,1003.37
2019-04-26T08:05:33.694Z,1003.45
2019-04-26T08:07:26.499Z,1003.41
2019-04-26T08:08:26.424Z,1003.40
2019-04-26T08:10:19.222Z,1003.38
2019-04-26T08:11:19.167Z,1003.38
2019-04-26T08:13:13.010Z,1003.47
2019-04-26T08:14:12.594Z,1003.47
2019-04-26T08:16:06.406Z,1003.42
2019-04-26T08:17:05.394Z,1003.43
2019-04-26T08:18:57.482Z,1003.42
2019-04-26T08:19:57.737Z,1003.41
2019-04-26T08:21:50.265Z,1003.45
2019-04-26T08:22:52.206Z,1003.41
2019-04-26T08:24:42.972Z,1003.38
2019-04-26T08:25:42.919Z,1003.41
2019-04-26T08:27:36.587Z,1003.42
2019-04-26T08:28:36.489Z,1003.38
2019-04-26T08:30:29.298Z,1003.35
2019-04-26T08:31:29.241Z,1003.30
2019-04-26T08:33:22.040Z,1003.33
2019-04-26T08:34:28.511Z,1003.35
2019-04-26T08:36:14.852Z,1003.35
2019-04-26T08:37:15.650Z,1003.43
2019-04-26T08:39:08.379Z,1003.34
2019-04-26T08:40:08.319Z,1003.39
2019-04-26T08:42:01.685Z,1003.40
2019-04-26T08:43:01.071Z,1003.37
2019-04-26T08:44:53.872Z,1003.32
2019-04-26T08:46:02.959Z,1003.31
2019-04-26T08:47:50.319Z,1003.30
2019-04-26T08:48:46.571Z,1003.34
2019-04-26T08:50:42.223Z,1003.31
2019-04-26T08:51:39.314Z,1003.33
2019-04-26T08:53:32.125Z,1003.32
2019-04-26T08:54:32.679Z,1003.34
2019-04-26T08:56:24.870Z,1003.37
2019-04-26T08:57:24.820Z,1003.32
2019-04-26T08:59:17.629Z,1003.37
2019-04-26T09:00:17.591Z,1003.35
2019-04-26T09:02:10.376Z,1003.36
2019-04-26T09:03:11.613Z,1003.35
2019-04-26T09:05:03.139Z,1003.35
2019-04-26T09:06:03.097Z,1003.36
2019-04-26T09:07:57.560Z,1003.33
2019-04-26T09:08:55.815Z,1003.35
2019-04-26T09:10:48.609Z,1003.31
2019-04-26T09:11:59.133Z,1003.32
2019-04-26T09:13:41.339Z,1003.33
2019-04-26T09:14:41.276Z,1003.34
2019-04-26T09:16:34.122Z,1003.33
2019-04-26T09:17:34.066Z,1003.34
2019-04-26T09:19:30.574Z,1003.30
2019-04-26T09:20:28.911Z,1003.30
2019-04-26T09:22:22.539Z,1003.31
2019-04-26T09:23:19.577Z,1003.24
2019-04-26T09:25:12.387Z,1003.25
2019-04-26T09:26:12.867Z,1003.24
2019-04-26T09:28:05.130Z,1003.21
2019-04-26T09:29:05.069Z,1003.25
2019-04-26T09:30:57.864Z,1003.24
2019-04-26T09:31:57.809Z,1003.30
2019-04-26T09:33:50.639Z,1003.22
2019-04-26T09:34:50.568Z,1003.20
2019-04-26T09:36:43.340Z,1003.23
2019-04-26T09:37:43.286Z,1003.22
2019-04-26T09:39:36.079Z,1003.22
2019-04-26T09:40:36.007Z,1003.21
2019-04-26T09:42:28.790Z,1003.17
2019-04-26T09:43:28.733Z,1003.17
2019-04-26T09:45:21.530Z,1003.17
2019-04-26T09:46:21.475Z,1003.18
2019-04-26T09:48:14.267Z,1003.18
2019-04-26T09:49:14.208Z,1003.12
2019-04-26T09:51:07.026Z,1003.15
2019-04-26T09:52:06.965Z,1003.12
2019-04-26T09:53:59.769Z,1003.13
2019-04-26T09:54:59.712Z,1003.13
2019-04-26T09:56:52.488Z,1003.10
2019-04-26T09:57:53.430Z,1003.09
2019-04-26T09:59:45.285Z,1003.16
2019-04-26T10:00:48.515Z,1003.14
2019-04-26T10:02:38.028Z,1003.23
2019-04-26T10:03:37.967Z,1003.22
2019-04-26T10:05:30.777Z,1003.14
2019-04-26T10:06:31.004Z,1003.14
2019-04-26T10:08:23.535Z,1003.08
2019-04-26T10:09:23.493Z,1003.16
2019-04-26T10:11:16.283Z,1003.15
2019-04-26T10:12:16.221Z,1003.13
2019-04-26T10:14:09.032Z,1003.18
2019-04-26T10:15:08.987Z,1003.13
2019-04-26T10:17:01.785Z,1003.14
2019-04-26T10:18:01.723Z,1003.14
2019-04-26T10:19:54.539Z,1003.15
2019-04-26T10:20:54.490Z,1003.14
2019-04-26T10:22:47.273Z,1003.18
2019-04-26T10:23:47.221Z,1003.17
2019-04-26T10:25:40.065Z,1003.18
2019-04-26T10:26:39.991Z,1003.19
2019-04-26T10:28:32.783Z,1003.18
2019-04-26T10:29:32.724Z,1003.21
2019-04-26T10:31:25.519Z,1003.22
2019-04-26T10:32:26.383Z,1003.21
2019-04-26T10:34:18.282Z,1003.16
2019-04-26T10:35:21.809Z,1003.13
2019-04-26T10:37:11.060Z,1003.17
2019-04-26T10:38:10.976Z,1003.17
2019-04-26T10:40:03.809Z,1003.16
2019-04-26T10:41:03.724Z,1003.24
2019-04-26T10:42:56.526Z,1003.14
2019-04-26T10:43:56.472Z,1003.10
2019-04-26T10:45:53.466Z,1003.10
2019-04-26T10:46:55.377Z,1003.13
2019-04-26T10:48:45.593Z,1003.18
2019-04-26T10:49:41.973Z,1003.09
2019-04-26T10:51:38.709Z,1003.16
2019-04-26T10:52:34.716Z,1003.18
2019-04-26T10:54:27.530Z,1003.20
2019-04-26T10:55:27.475Z,1003.21
2019-04-26T10:57:20.287Z,1003.21
2019-04-26T10:58:20.221Z,1003.20
2019-04-26T11:00:14.155Z,1003.19
2019-04-26T11:01:12.988Z,1003.14
2019-04-26T11:03:06.181Z,1003.14
2019-04-26T11:04:05.699Z,1003.11
2019-04-26T11:05:58.518Z,1003.13
2019-04-26T11:07:02.009Z,1003.11
2019-04-26T11:08:51.237Z,1003.11
2019-04-26T11:09:51.189Z,1003.10
2019-04-26T11:11:43.971Z,1003.12
2019-04-26T11:12:44.802Z,1003.11
2019-04-26T11:14:36.684Z,1003.11
2019-04-26T11:15:36.625Z,1003.09
2019-04-26T11:17:29.437Z,1003.08
2019-04-26T11:18:29.401Z,1003.06
2019-04-26T11:20:22.149Z,1003.07
2019-04-26T11:21:22.468Z,1003.15
2019-04-26T11:23:14.900Z,1003.07
2019-04-26T11:24:15.265Z,1003.09
2019-04-26T11:26:07.643Z,1003.08
2019-04-26T11:27:09.678Z,1003.02
2019-04-26T11:29:00.430Z,1003.01
2019-04-26T11:30:11.216Z,1002.99
2019-04-26T11:31:54.198Z,1002.99
2019-04-26T11:32:53.070Z,1002.92
2019-04-26T11:34:45.933Z,1002.94
2019-04-26T11:35:45.894Z,1003.00
2019-04-26T11:37:38.690Z,1002.98
2019-04-26T11:38:38.632Z,1002.98
2019-04-26T11:40:31.395Z,1002.96
2019-04-26T11:41:33.986Z,1002.96
2019-04-26T11:43:24.192Z,1002.96
2019-04-26T11:44:27.536Z,1002.92
2019-04-26T11:46:21.770Z,1002.94
2019-04-26T11:47:17.687Z,1002.94
2019-04-26T11:49:10.509Z,1003.06
2019-04-26T11:50:12.440Z,1003.02
2019-04-26T11:52:04.102Z,1003.02
2019-04-26T11:53:06.308Z,1002.97
2019-04-26T11:54:56.241Z,1003.01
2019-04-26T11:55:55.952Z,1002.99
2019-04-26T11:57:49.181Z,1003.05
2019-04-26T11:58:48.692Z,1002.97
2019-04-26T12:00:41.492Z,1002.94
2019-04-26T12:01:42.027Z,1002.97
2019-04-26T12:03:34.239Z,1002.98
2019-04-26T12:04:34.172Z,1002.99
2019-04-26T12:06:26.966Z,1003.05
2019-04-26T12:07:26.884Z,1003.06
2019-04-26T12:09:19.676Z,1003.06
2019-04-26T12:10:19.596Z,1003.04
2019-04-26T12:12:13.073Z,1003.03
2019-04-26T12:13:12.377Z,1003.02
2019-04-26T12:15:08.422Z,1003.08
2019-04-26T12:16:05.051Z,1003.17
2019-04-26T12:17:58.982Z,1003.13
2019-04-26T12:18:57.773Z,1003.11
2019-04-26T12:20:50.552Z,1003.14
2019-04-26T12:21:50.497Z,1003.05
2019-04-26T12:23:43.307Z,1003.16
2019-04-26T12:24:43.250Z,1003.06
2019-04-26T12:26:42.888Z,1003.15
2019-04-26T12:27:36.039Z,1003.12
2019-04-26T12:29:28.798Z,1003.15
2019-04-26T12:30:28.724Z,1003.13
2019-04-26T12:32:21.846Z,1003.21
2019-04-26T12:33:21.461Z,1003.23
2019-04-26T12:35:14.268Z,1003.23
2019-04-26T12:36:14.453Z,1003.24
2019-04-26T12:38:07.041Z,1003.19
2019-04-26T12:39:06.969Z,1003.19
2019-04-26T12:40:59.790Z,1003.15
2019-04-26T12:41:59.692Z,1003.18
2019-04-26T12:43:54.513Z,1003.21
2019-04-26T12:44:52.467Z,1003.20
2019-04-26T12:46:45.290Z,1003.20
2019-04-26T12:47:45.239Z,1003.24
2019-04-26T12:49:38.051Z,1003.22
2019-04-26T12:50:37.976Z,1003.23
2019-04-26T12:52:30.743Z,1003.27
2019-04-26T12:53:31.626Z,1003.29
2019-04-26T12:55:23.555Z,1003.26
2019-04-26T12:56:26.623Z,1003.24
2019-04-26T12:58:16.380Z,1003.18
2019-04-26T12:59:16.213Z,1003.16
2019-04-26T13:01:12.156Z,1003.15
2019-04-26T13:02:08.950Z,1003.11
2019-04-26T13:04:02.626Z,1003.05
2019-04-26T13:05:01.704Z,1003.05
2019-04-26T13:06:54.527Z,1003.05
2019-04-26T13:07:54.462Z,1003.09
2019-04-26T13:09:47.253Z,1003.04
2019-04-26T13:10:47.182Z,1003.05
2019-04-26T13:12:40.014Z,1003.06
2019-04-26T13:13:39.937Z,1003.01
2019-04-26T13:15:32.807Z,1003.07
2019-04-26T13:16:32.739Z,1003.07
2019-04-26T13:18:25.535Z,1003.05
2019-04-26T13:19:25.443Z,1003.11
2019-04-26T13:21:18.260Z,1003.09
2019-04-26T13:22:18.191Z,1003.05
2019-04-26T13:24:11.035Z,1003.12
2019-04-26T13:25:16.010Z,1003.09
2019-04-26T13:27:06.098Z,1003.04
2019-04-26T13:28:03.691Z,1003.02
2019-04-26T13:30:02.623Z,1002.98
2019-04-26T13:30:56.472Z,1002.99
2019-04-26T13:32:53.278Z,1002.99
2019-04-26T13:33:49.225Z,1002.97
2019-04-26T13:35:46.557Z,1003.00
2019-04-26T13:36:41.934Z,1002.99
2019-04-26T13:38:34.755Z,1003.03
2019-04-26T13:39:34.688Z,1002.94
2019-04-26T13:41:28.013Z,1002.96
2019-04-26T13:42:27.419Z,1003.00
2019-04-26T13:44:20.230Z,1002.96
2019-04-26T13:45:20.153Z,1002.96
2019-04-26T13:47:12.920Z,1002.90
2019-04-26T13:48:12.858Z,1002.95
2019-04-26T13:50:05.652Z,1002.92
2019-04-26T13:51:05.830Z,1002.92
2019-04-26T13:52:58.365Z,1002.90
2019-04-26T13:53:58.302Z,1002.87
2019-04-26T13:55:51.089Z,1002.91
2019-04-26T13:56:51.021Z,1002.87
2019-04-26T13:58:43.831Z,1002.89
2019-04-26T13:59:43.770Z,1002.90
2019-04-26T14:01:36.550Z,1002.93
2019-04-26T14:02:36.509Z,1002.97
2019-04-26T14:04:29.256Z,1002.92
2019-04-26T14:05:29.207Z,1002.92
2019-04-26T14:07:24.428Z,1002.97
2019-04-26T14:08:21.944Z,1002.98
2019-04-26T14:10:14.763Z,1002.97
2019-04-26T14:11:14.682Z,1002.94
2019-04-26T14:13:07.485Z,1002.98
2019-04-26T14:14:07.400Z,1002.96
2019-04-26T14:16:00.179Z,1002.91
2019-04-26T14:17:00.125Z,1002.89
2019-04-26T14:18:53.613Z,1002.88
2019-04-26T14:19:52.837Z,1002.85
2019-04-26T14:21:45.623Z,1002.82
2019-04-26T14:22:45.552Z,1002.85
2019-04-26T14:24:38.333Z,1002.84
2019-04-26T14:25:38.282Z,1002.88
2019-04-26T14:27:31.053Z,1002.93
2019-04-26T14:28:30.987Z,1002.87
2019-04-26T14:30:23.768Z,1002.98
2019-04-26T14:31:23.694Z,1002.99
2019-04-26T14:33:16.460Z,1002.95
2019-04-26T14:34:16.410Z,1002.92
2019-04-26T14:36:17.586Z,1003.02
2019-04-26T14:37:11.039Z,1003.00
2019-04-26T14:39:06.114Z,1003.04
2019-04-26T14:40:10.661Z,1003.01
2019-04-26T14:41:56.902Z,1002.99
2019-04-26T14:43:06.096Z,1002.88
2019-04-26T14:44:49.488Z,1002.91
2019-04-26T14:45:55.726Z,1002.98
2019-04-26T14:47:47.308Z,1002.98
2019-04-26T14:48:40.635Z,1002.94
2019-04-26T14:50:33.614Z,1002.94
2019-04-26T14:51:32.738Z,1002.99
2019-04-26T14:53:25.581Z,1003.02
2019-04-26T14:54:25.512Z,1003.04
2019-04-26T14:56:18.395Z,1002.95
2019-04-26T14:57:24.484Z,1002.98
2019-04-26T14:59:12.200Z,1003.01
2019-04-26T15:00:12.616Z,1003.06
2019-04-26T15:02:06.329Z,1002.99
2019-04-26T15:03:03.756Z,1002.97
2019-04-26T15:04:58.098Z,1002.92
2019-04-26T15:05:56.520Z,1002.93
2019-04-26T15:07:51.506Z,1002.94
2019-04-26T15:08:49.263Z,1002.95
2019-04-26T15:10:46.681Z,1003.06
2019-04-26T15:11:53.550Z,1002.98
2019-04-26T15:13:40.259Z,1003.06
2019-04-26T15:14:34.789Z,1003.05
2019-04-26T15:16:27.530Z,1003.11
2019-04-26T15:17:27.470Z,1003.04
2019-04-26T15:19:20.301Z,1003.08
2019-04-26T15:20:20.914Z,1003.10
2019-04-26T15:22:13.179Z,1003.15
2019-04-26T15:23:13.283Z,1003.21
2019-04-26T15:25:07.787Z,1003.19
2019-04-26T15:26:05.722Z,1003.18
2019-04-26T15:27:58.524Z,1003.23
2019-04-26T15:28:58.446Z,1003.22
2019-04-26T15:30:52.740Z,1003.28
2019-04-26T15:31:53.794Z,1003.21
2019-04-26T15:33:48.533Z,1003.23
2019-04-26T15:34:44.083Z,1003.23
2019-04-26T15:36:36.742Z,1003.27
2019-04-26T15:37:36.658Z,1003.27
2019-04-26T15:39:29.434Z,1003.26
2019-04-26T15:40:31.857Z,1003.24
2019-04-26T15:42:23.779Z,1003.25
2019-04-26T15:43:23.840Z,1003.20
2019-04-26T15:45:14.893Z,1003.29
2019-04-26T15:46:14.825Z,1003.29
2019-04-26T15:48:07.652Z,1003.33
2019-04-26T15:49:09.517Z,1003.42
2019-04-26T15:51:00.373Z,1003.40
2019-04-26T15:52:00.809Z,1003.43
2019-04-26T15:53:53.149Z,1003.39
2019-04-26T15:54:59.007Z,1003.40
2019-04-26T15:56:49.275Z,1003.40
2019-04-26T15:57:45.812Z,1003.39
2019-04-26T15:59:38.551Z,1003.36
2019-04-26T16:00:38.564Z,1003.41
2019-04-26T16:02:32.124Z,1003.38
2019-04-26T16:03:32.737Z,1003.46
2019-04-26T16:05:29.269Z,1003.46
2019-04-26T16:06:23.955Z,1003.46
2019-04-26T16:08:16.744Z,1003.41
2019-04-26T16:09:19.869Z,1003.45
2019-04-26T16:11:11.327Z,1003.44
2019-04-26T16:12:09.402Z,1003.48
2019-04-26T16:14:02.237Z,1003.47
2019-04-26T16:15:02.504Z,1003.47
2019-04-26T16:16:58.408Z,1003.48
2019-04-26T16:17:54.895Z,1003.55
2019-04-26T16:19:47.678Z,1003.50
2019-04-26T16:20:47.571Z,1003.48
2019-04-26T16:22:40.359Z,1003.56
2019-04-26T16:23:43.267Z,1003.60
2019-04-26T16:25:34.378Z,1003.61
2019-04-26T16:26:33.053Z,1003.63
2019-04-26T16:28:25.926Z,1003.70
2019-04-26T16:29:25.821Z,1003.81
2019-04-26T16:31:18.580Z,1003.78
2019-04-26T16:32:21.868Z,1003.76
2019-04-26T16:34:11.804Z,1003.72
2019-04-26T16:35:11.282Z,1003.73
2019-04-26T16:37:04.055Z,1003.71
2019-04-26T16:38:06.998Z,1003.77
2019-04-26T16:39:56.803Z,1003.76
2019-04-26T16:40:56.734Z,1003.78
2019-04-26T16:42:53.085Z,1003.69
2019-04-26T16:43:53.251Z,1003.71
2019-04-26T16:45:42.979Z,1003.76
2019-04-26T16:46:43.840Z,1003.75
2019-04-26T16:48:35.061Z,1003.75
2019-04-26T16:49:41.902Z,1003.71
2019-04-26T16:51:27.794Z,1003.69
2019-04-26T16:52:27.736Z,1003.73
2019-04-26T16:54:21.863Z,1003.61
2019-04-26T16:57:13.304Z,1003.52
2019-04-26T16:58:13.242Z,1003.59
2019-04-26T17:00:06.050Z,1003.61
2019-04-26T17:00:33.601Z,1003.65
2019-04-26T17:01:10.035Z,1003.59
2019-04-26T17:03:02.998Z,1003.60
2019-04-26T17:03:58.671Z,1003.65
2019-04-26T17:05:58.842Z,1003.66
2019-04-26T17:06:52.920Z,1003.69
2019-04-26T17:08:49.891Z,1003.71
2019-04-26T17:09:59.913Z,1003.73
2019-04-26T17:11:41.131Z,1003.78
2019-04-26T17:12:36.849Z,1003.81
2019-04-26T17:14:29.623Z,1003.82
2019-04-26T17:15:29.592Z,1003.80
2019-04-26T17:17:22.535Z,1003.85
2019-04-26T17:18:23.833Z,1003.85
2019-04-26T17:20:15.115Z,1003.87
2019-04-26T17:21:17.597Z,1003.93
2019-04-26T17:23:07.833Z,1004.03
2019-04-26T17:24:09.581Z,1004.04